createdAt,value
2018-11-22T12:16:58.788Z,54.43
2018-11-22T12:19:03.538Z,54.82
2018-11-22T12:21:08.355Z,54.91
2018-11-22T12:23:13.104Z,55.26
2018-11-22T12:25:19.463Z,55.25
2018-11-22T12:27:24.294Z,53.95
2018-11-22T12:29:29.063Z,54.52
2018-11-22T12:31:34.193Z,54.89
2018-11-22T12:33:39.076Z,54.65
2018-11-22T12:35:48.804Z,54.42
2018-11-22T12:37:58.636Z,54.74
2018-11-22T12:40:03.809Z,54.38
2018-11-22T12:42:08.490Z,54.22
2018-11-22T12:44:13.238Z,54.50
2018-11-22T12:46:18.189Z,54.88
2018-11-22T12:48:23.071Z,55.02
2018-11-22T12:50:28.285Z,54.88
2018-11-22T12:52:33.017Z,54.42
2018-11-22T12:54:37.728Z,54.50
2018-11-22T12:56:42.552Z,55.44
2018-11-22T12:58:47.441Z,55.30
2018-11-22T13:00:52.320Z,55.46
2018-11-22T13:02:57.058Z,55.74
2018-11-22T13:05:01.826Z,55.50
2018-11-22T13:07:06.725Z,55.38
2018-11-22T13:09:11.746Z,55.44
2018-11-22T13:11:16.649Z,55.16
2018-11-22T13:13:21.470Z,55.88
2018-11-22T13:15:26.199Z,55.88
2018-11-22T13:17:30.969Z,55.41
2018-11-22T13:19:35.779Z,55.25
2018-11-22T13:21:40.661Z,55.24
2018-11-22T13:23:45.463Z,55.70
2018-11-22T13:25:50.215Z,55.87
2018-11-22T13:27:55.041Z,55.64
2018-11-22T13:29:59.890Z,55.12
2018-11-22T13:32:04.666Z,55.08
2018-11-22T13:34:10.608Z,54.93
2018-11-22T13:36:15.597Z,54.79
2018-11-22T13:38:20.764Z,54.92
2018-11-22T13:40:26.166Z,54.86
2018-11-22T13:42:31.390Z,54.67
2018-11-22T13:44:36.417Z,55.48
2018-11-22T13:46:41.242Z,55.18
2018-11-22T13:48:46.232Z,55.29
2018-11-22T13:50:51.078Z,55.61
2018-11-22T13:52:57.884Z,56.18
2018-11-22T13:55:03.419Z,55.39
2018-11-22T13:57:09.021Z,56.01
2018-11-22T13:59:12.782Z,55.05
2018-11-22T14:01:17.583Z,55.75
2018-11-22T14:03:22.369Z,55.56
2018-11-22T14:05:29.524Z,55.21
2018-11-22T14:07:34.291Z,55.46
2018-11-22T14:09:39.766Z,55.70
2018-11-22T14:11:44.646Z,55.73
2018-11-22T14:13:49.514Z,55.63
2018-11-22T14:15:54.276Z,55.80
2018-11-22T14:18:00.484Z,55.89
2018-11-22T14:20:05.937Z,55.76
2018-11-22T14:22:11.175Z,55.90
2018-11-22T14:24:16.793Z,56.02
2018-11-22T14:26:21.740Z,55.86
2018-11-22T14:28:26.549Z,55.62
2018-11-22T14:30:36.548Z,55.03
2018-11-22T14:32:42.470Z,55.43
2018-11-22T14:34:47.391Z,54.79
2018-11-22T14:36:55.066Z,54.52
2018-11-22T14:38:59.849Z,54.83
2018-11-22T14:41:04.671Z,55.44
2018-11-22T14:43:09.723Z,54.98
2018-11-22T14:45:15.560Z,54.85
2018-11-22T14:47:20.475Z,54.67
2018-11-22T14:49:25.301Z,55.19
2018-11-22T14:51:36.702Z,55.12
2018-11-22T14:53:42.091Z,55.45
2018-11-22T14:55:46.921Z,54.58
2018-11-22T14:57:51.684Z,55.51
2018-11-22T14:59:57.410Z,55.27
2018-11-22T15:02:02.289Z,55.70
2018-11-22T15:04:07.083Z,55.97
2018-11-22T15:08:24.254Z,55.67
2018-11-22T15:10:29.425Z,56.14
2018-11-22T15:12:34.216Z,55.89
2018-11-22T15:14:39.409Z,56.33
2018-11-22T15:16:44.259Z,56.69
2018-11-22T15:18:49.023Z,56.40
2018-11-22T15:20:53.886Z,56.45
2018-11-22T15:22:58.837Z,57.11
2018-11-22T15:25:03.740Z,57.61
2018-11-22T15:27:08.820Z,57.63
2018-11-22T15:29:13.928Z,57.29
2018-11-22T15:31:27.325Z,57.66
2018-11-22T15:33:32.846Z,58.07
2018-11-22T15:35:38.020Z,57.96
2018-11-22T15:37:43.841Z,57.96
2018-11-22T15:39:49.050Z,58.33
2018-11-22T15:41:54.088Z,58.33
2018-11-22T15:43:59.209Z,58.13
2018-11-22T15:46:04.124Z,58.42
2018-11-22T15:48:12.303Z,58.07
2018-11-22T15:50:19.233Z,58.11
2018-11-22T15:52:24.447Z,59.03
2018-11-22T15:54:29.803Z,58.79
2018-11-22T15:56:34.923Z,59.36
2018-11-22T15:58:40.402Z,59.72
2018-11-22T16:00:45.411Z,59.22
2018-11-22T16:02:50.978Z,59.70
2018-11-22T16:04:56.306Z,59.79
2018-11-22T16:07:01.550Z,60.25
2018-11-22T16:09:10.024Z,60.64
2018-11-22T16:11:15.129Z,60.78
2018-11-22T16:13:19.969Z,60.94
2018-11-22T16:15:31.602Z,61.39
2018-11-22T16:17:36.465Z,61.55
2018-11-22T16:19:41.396Z,62.02
2018-11-22T16:21:46.257Z,62.11
2018-11-22T16:23:51.156Z,62.45
2018-11-22T16:25:56.499Z,62.52
2018-11-22T16:28:01.394Z,62.65
2018-11-22T16:30:11.255Z,63.26
2018-11-22T16:34:28.552Z,63.46
2018-11-22T16:36:33.744Z,63.69
2018-11-22T16:38:38.966Z,63.87
2018-11-22T16:40:43.734Z,63.75
2018-11-22T16:42:51.770Z,63.90
2018-11-22T16:44:57.228Z,64.44
2018-11-22T16:47:02.115Z,64.44
2018-11-22T16:49:07.145Z,64.41
2018-11-22T16:51:13.171Z,65.13
2018-11-22T16:53:18.826Z,64.59
2018-11-22T16:55:24.388Z,64.90
2018-11-22T16:57:29.291Z,65.20
2018-11-22T16:59:34.551Z,65.17
2018-11-22T17:01:39.835Z,65.43
2018-11-22T17:03:44.810Z,65.48
2018-11-22T17:05:49.951Z,65.91
2018-11-22T17:07:54.953Z,65.75
2018-11-22T17:10:00.362Z,65.81
2018-11-22T17:12:05.516Z,66.10
2018-11-22T17:14:10.501Z,66.20
2018-11-22T17:16:17.022Z,66.07
2018-11-22T17:18:20.803Z,66.33
2018-11-22T17:20:26.231Z,66.61
2018-11-22T17:22:31.056Z,66.91
2018-11-22T17:24:36.061Z,66.69
2018-11-22T17:26:40.864Z,67.13
2018-11-22T17:28:52.058Z,66.73
2018-11-22T17:30:56.876Z,66.63
2018-11-22T17:33:01.689Z,65.70
2018-11-22T17:35:07.435Z,65.75
2018-11-22T17:37:12.743Z,65.98
2018-11-22T17:39:17.564Z,66.03
2018-11-22T17:41:22.302Z,65.79
2018-11-22T17:43:27.121Z,65.76
2018-11-22T17:45:34.203Z,65.94
2018-11-22T17:47:39.055Z,66.01
2018-11-22T17:49:43.985Z,65.71
2018-11-22T17:51:48.819Z,66.07
2018-11-22T17:53:59.191Z,65.55
2018-11-22T17:56:04.062Z,66.13
2018-11-22T17:58:09.011Z,66.20
2018-11-22T18:00:21.940Z,66.61
2018-11-22T18:02:26.781Z,66.14
2018-11-22T18:04:31.753Z,66.42
2018-11-22T18:06:36.705Z,66.21
2018-11-22T18:08:41.544Z,65.92
2018-11-22T18:10:46.372Z,65.99
2018-11-22T18:12:52.076Z,66.29
2018-11-22T18:14:56.883Z,65.78
2018-11-22T18:17:01.958Z,65.88
2018-11-22T18:19:06.800Z,66.35
2018-11-22T18:21:11.617Z,66.14
2018-11-22T18:23:16.586Z,66.40
2018-11-22T18:25:23.712Z,66.37
2018-11-22T18:27:29.505Z,66.46
2018-11-22T18:29:40.106Z,66.52
2018-11-22T18:31:48.886Z,66.68
2018-11-22T18:33:54.046Z,66.42
2018-11-22T18:35:59.225Z,66.22
2018-11-22T18:38:05.091Z,65.54
2018-11-22T18:40:15.386Z,65.90
2018-11-22T18:42:21.129Z,66.22
2018-11-22T18:44:26.182Z,66.23
2018-11-22T18:46:30.941Z,66.15
2018-11-22T18:48:35.913Z,66.21
2018-11-22T18:50:41.536Z,66.38
2018-11-22T18:52:46.781Z,66.36
2018-11-22T18:54:51.719Z,66.51
2018-11-22T18:56:57.634Z,66.94
2018-11-22T18:59:02.565Z,67.67
2018-11-22T19:01:08.291Z,67.22
2018-11-22T19:03:16.724Z,67.60
2018-11-22T19:05:21.723Z,67.90
2018-11-22T19:07:27.088Z,67.55
2018-11-22T19:09:32.397Z,67.45
2018-11-22T19:11:37.909Z,67.64
2018-11-22T19:13:42.912Z,67.81
2018-11-22T19:15:48.570Z,67.76
2018-11-22T19:17:53.750Z,68.12
2018-11-22T19:19:59.400Z,68.27
2018-11-22T19:22:16.354Z,68.89
2018-11-22T19:24:21.465Z,68.89
2018-11-22T19:26:26.362Z,68.27
2018-11-22T19:28:31.366Z,67.27
2018-11-22T19:30:39.042Z,68.03
2018-11-22T19:32:45.281Z,67.66
2018-11-22T19:34:50.426Z,68.05
2018-11-22T19:36:55.293Z,67.21
2018-11-22T19:39:00.536Z,67.55
2018-11-22T19:41:06.093Z,67.72
2018-11-22T19:43:11.822Z,67.12
2018-11-22T19:45:17.972Z,67.52
2018-11-22T19:47:23.664Z,67.73
2018-11-22T19:49:28.576Z,68.00
2018-11-22T19:51:33.668Z,68.19
2018-11-22T19:53:38.913Z,68.49
2018-11-22T19:55:43.894Z,68.58
2018-11-22T19:57:50.692Z,68.34
2018-11-22T19:59:56.958Z,68.65
2018-11-22T20:02:01.779Z,68.57
2018-11-22T20:04:06.755Z,68.08
2018-11-22T20:06:11.599Z,68.40
2018-11-22T20:08:19.118Z,68.56
2018-11-22T20:10:25.904Z,67.91
2018-11-22T20:12:31.003Z,68.10
2018-11-22T20:14:35.924Z,67.70
2018-11-22T20:16:45.596Z,67.82
2018-11-22T20:18:50.925Z,67.57
2018-11-22T20:20:55.950Z,68.09
2018-11-22T20:23:01.271Z,68.49
2018-11-22T20:25:07.309Z,68.61
2018-11-22T20:27:12.559Z,69.21
2018-11-22T20:29:22.540Z,69.21
2018-11-22T20:31:37.447Z,68.89
2018-11-22T20:33:42.648Z,69.29
2018-11-22T20:35:48.074Z,69.38
2018-11-22T20:37:53.691Z,69.18
2018-11-22T20:40:00.000Z,68.87
2018-11-22T20:42:06.316Z,69.29
2018-11-22T20:44:23.322Z,69.17
2018-11-22T20:46:28.406Z,69.14
2018-11-22T20:48:33.434Z,69.53
2018-11-22T20:50:39.431Z,69.62
2018-11-22T20:52:44.566Z,69.40
2018-11-22T20:54:51.811Z,69.59
2018-11-22T20:57:22.944Z,70.15
2018-11-22T20:59:28.053Z,69.57
2018-11-22T21:01:40.120Z,69.40
2018-11-22T21:03:50.323Z,69.76
2018-11-22T21:05:55.399Z,69.68
2018-11-22T21:08:00.809Z,69.32
2018-11-22T21:10:11.170Z,70.20
2018-11-22T21:12:17.649Z,70.34
2018-11-22T21:14:27.427Z,70.04
2018-11-22T21:16:43.881Z,70.85
2018-11-22T21:18:48.950Z,70.25
2018-11-22T21:20:54.025Z,70.82
2018-11-22T21:22:59.742Z,70.77
2018-11-22T21:25:05.397Z,70.54
2018-11-22T21:27:10.690Z,70.70
2018-11-22T21:29:19.227Z,70.92
2018-11-22T21:31:24.948Z,70.83
2018-11-22T21:33:29.964Z,69.93
2018-11-22T21:35:36.251Z,70.56
2018-11-22T21:37:41.350Z,70.18
2018-11-22T21:39:47.406Z,70.78
2018-11-22T21:41:53.220Z,70.69
2018-11-22T21:43:58.597Z,69.87
2018-11-22T21:46:03.945Z,70.17
2018-11-22T21:48:10.378Z,70.39
2018-11-22T21:50:17.030Z,69.76
2018-11-22T21:52:22.080Z,70.12
2018-11-22T21:54:27.297Z,70.63
2018-11-22T21:56:32.647Z,70.78
2018-11-22T21:58:40.599Z,70.96
2018-11-22T22:00:45.846Z,70.56
2018-11-22T22:02:53.609Z,70.42
2018-11-22T22:05:00.994Z,70.58
2018-11-22T22:07:08.246Z,70.39
2018-11-22T22:09:13.730Z,70.44
2018-11-22T22:11:18.706Z,70.82
2018-11-22T22:13:24.304Z,71.03
2018-11-22T22:15:30.670Z,70.61
2018-11-22T22:17:36.653Z,71.06
2018-11-22T22:19:42.245Z,70.53
2018-11-22T22:21:48.487Z,70.71
2018-11-22T22:23:53.712Z,71.11
2018-11-22T22:25:58.963Z,70.46
2018-11-22T22:28:06.680Z,70.48
2018-11-22T22:30:19.149Z,70.32
2018-11-22T22:32:25.236Z,70.44
2018-11-22T22:34:30.208Z,70.56
2018-11-22T22:37:06.626Z,70.13
2018-11-22T22:39:12.814Z,70.20
2018-11-22T22:41:20.177Z,70.00
2018-11-22T22:43:27.533Z,70.01
2018-11-22T22:45:34.808Z,69.71
2018-11-22T22:47:42.509Z,69.84
2018-11-22T22:49:47.552Z,69.74
2018-11-22T22:51:52.914Z,70.24
2018-11-22T22:56:13.862Z,70.61
2018-11-22T22:58:19.075Z,70.17
2018-11-22T23:00:30.540Z,70.66
2018-11-22T23:02:43.084Z,71.26
2018-11-22T23:05:13.643Z,71.36
2018-11-22T23:07:44.995Z,70.60
2018-11-22T23:09:57.615Z,71.02
2018-11-22T23:12:02.372Z,71.11
2018-11-22T23:14:09.910Z,71.00
2018-11-22T23:16:17.243Z,71.28
2018-11-22T23:18:24.574Z,71.23
2018-11-22T23:20:34.327Z,70.85
2018-11-22T23:22:39.645Z,71.18
2018-11-22T23:24:44.437Z,70.89
2018-11-22T23:26:49.256Z,71.34
2018-11-22T23:28:53.987Z,71.40
2018-11-22T23:30:58.836Z,72.05
2018-11-22T23:33:04.963Z,71.87
2018-11-22T23:35:10.195Z,71.85
2018-11-22T23:37:15.031Z,72.07
2018-11-22T23:39:20.013Z,72.27
2018-11-22T23:41:24.962Z,72.24
2018-11-22T23:43:30.363Z,72.84
2018-11-22T23:45:35.431Z,72.53
2018-11-22T23:47:40.960Z,72.20
2018-11-22T23:49:45.706Z,72.20
2018-11-22T23:51:50.621Z,72.54
2018-11-22T23:53:55.509Z,72.83
2018-11-22T23:56:00.774Z,72.90
2018-11-22T23:58:05.989Z,72.24
